createdAt,value
2018-09-27T00:00:03.780Z,15.60
2018-09-27T00:02:31.330Z,15.60
2018-09-27T00:04:58.876Z,15.70
2018-09-27T00:07:26.422Z,15.60
2018-09-27T00:09:53.964Z,15.70
2018-09-27T00:12:21.509Z,15.70
2018-09-27T00:14:49.027Z,15.70
2018-09-27T00:17:16.551Z,15.70
2018-09-27T00:19:44.197Z,15.70
2018-09-27T00:22:11.636Z,15.70
2018-09-27T00:24:39.224Z,15.70
2018-09-27T00:27:06.782Z,15.70
2018-09-27T00:29:34.322Z,15.70
2018-09-27T00:32:01.851Z,15.70
2018-09-27T00:34:29.364Z,15.70
2018-09-27T00:36:56.895Z,15.70
2018-09-27T00:39:24.429Z,15.70
2018-09-27T00:41:51.953Z,15.70
2018-09-27T00:44:19.491Z,15.70
2018-09-27T00:46:47.069Z,15.70
2018-09-27T00:49:14.620Z,15.70
2018-09-27T00:51:42.144Z,15.70
2018-09-27T00:54:09.685Z,15.80
2018-09-27T00:56:37.210Z,15.80
2018-09-27T00:59:04.803Z,15.80
2018-09-27T01:01:32.330Z,15.80
2018-09-27T01:03:59.865Z,15.80
2018-09-27T01:06:27.412Z,15.80
2018-09-27T01:08:54.944Z,15.80
2018-09-27T01:11:22.495Z,15.80
2018-09-27T01:13:50.040Z,15.80
2018-09-27T01:16:17.635Z,15.80
2018-09-27T01:18:45.202Z,15.80
2018-09-27T01:21:12.731Z,15.80
2018-09-27T01:23:40.296Z,15.80
2018-09-27T01:26:07.827Z,15.70
2018-09-27T01:28:35.359Z,15.80
2018-09-27T01:31:02.883Z,15.80
2018-09-27T01:33:30.415Z,15.80
2018-09-27T01:35:57.948Z,15.80
2018-09-27T01:38:25.491Z,15.80
2018-09-27T01:40:53.074Z,15.80
2018-09-27T01:43:20.604Z,15.80
2018-09-27T01:45:48.376Z,15.80
2018-09-27T01:48:15.935Z,15.70
2018-09-27T01:50:43.503Z,15.80
2018-09-27T01:53:11.045Z,15.80
2018-09-27T01:55:38.593Z,15.80
2018-09-27T01:58:06.186Z,15.80
2018-09-27T02:00:33.760Z,15.80
2018-09-27T02:03:01.313Z,15.70
2018-09-27T02:05:28.852Z,15.70
2018-09-27T02:07:56.386Z,15.70
2018-09-27T02:10:23.920Z,15.70
2018-09-27T02:12:51.460Z,15.70
2018-09-27T02:15:19.000Z,15.60
2018-09-27T02:17:46.531Z,15.60
2018-09-27T02:20:14.071Z,15.60
2018-09-27T02:22:41.912Z,15.60
2018-09-27T02:25:09.549Z,15.60
2018-09-27T02:27:37.106Z,15.60
2018-09-27T02:30:04.690Z,15.50
2018-09-27T02:32:32.234Z,15.50
2018-09-27T02:34:59.754Z,15.40
2018-09-27T02:37:27.270Z,15.40
2018-09-27T02:39:54.777Z,15.50
2018-09-27T02:42:22.294Z,15.50
2018-09-27T02:44:49.806Z,15.50
2018-09-27T02:47:17.314Z,15.50
2018-09-27T02:49:44.821Z,15.50
2018-09-27T02:52:12.330Z,15.50
2018-09-27T02:54:39.839Z,15.60
2018-09-27T02:57:07.364Z,15.50
2018-09-27T02:59:34.879Z,15.60
2018-09-27T03:02:02.382Z,15.60
2018-09-27T03:04:29.907Z,15.60
2018-09-27T03:06:57.451Z,15.60
2018-09-27T03:09:24.966Z,15.60
2018-09-27T03:11:52.479Z,15.70
2018-09-27T03:14:19.984Z,15.70
2018-09-27T03:16:47.499Z,15.70
2018-09-27T03:19:15.048Z,15.60
2018-09-27T03:21:42.557Z,15.70
2018-09-27T03:24:10.078Z,15.70
2018-09-27T03:26:37.593Z,15.60
2018-09-27T03:29:05.206Z,15.70
2018-09-27T03:31:32.723Z,15.70
2018-09-27T03:34:00.262Z,15.60
2018-09-27T03:36:27.770Z,15.70
2018-09-27T03:38:55.282Z,15.60
2018-09-27T03:41:22.811Z,15.60
2018-09-27T03:43:50.335Z,15.60
2018-09-27T03:46:17.850Z,15.60
2018-09-27T03:48:45.345Z,15.60
2018-09-27T03:51:12.863Z,15.50
2018-09-27T03:53:40.370Z,15.50
2018-09-27T03:56:07.883Z,15.50
2018-09-27T03:58:35.434Z,15.50
2018-09-27T04:01:02.940Z,15.40
2018-09-27T04:03:30.457Z,15.50
2018-09-27T04:05:57.970Z,15.50
2018-09-27T04:08:25.481Z,15.40
2018-09-27T04:10:52.995Z,15.40
2018-09-27T04:13:20.507Z,15.40
2018-09-27T04:15:48.008Z,15.40
2018-09-27T04:18:15.501Z,15.40
2018-09-27T04:20:51.331Z,15.30
2018-09-27T04:23:20.327Z,15.40
2018-09-27T04:25:48.085Z,15.30
2018-09-27T04:28:15.600Z,15.30
2018-09-27T04:30:43.121Z,15.30
2018-09-27T04:33:10.658Z,15.30
2018-09-27T04:35:38.165Z,15.30
2018-09-27T04:38:05.853Z,15.30
2018-09-27T04:40:33.371Z,15.30
2018-09-27T04:43:00.957Z,15.30
2018-09-27T04:45:28.498Z,15.20
2018-09-27T04:47:55.997Z,15.20
2018-09-27T04:50:23.511Z,15.30
2018-09-27T04:52:51.014Z,15.20
2018-09-27T04:55:18.533Z,15.20
2018-09-27T04:57:46.053Z,15.20
2018-09-27T05:00:13.567Z,15.20
2018-09-27T05:02:41.082Z,15.20
2018-09-27T05:05:08.600Z,15.20
2018-09-27T05:07:36.110Z,15.20
2018-09-27T05:10:03.818Z,15.20
2018-09-27T05:12:31.309Z,15.20
2018-09-27T05:14:58.816Z,15.20
2018-09-27T05:17:26.323Z,15.20
2018-09-27T05:19:53.825Z,15.20
2018-09-27T05:22:21.339Z,15.20
2018-09-27T05:24:48.843Z,15.20
2018-09-27T05:27:16.378Z,15.20
2018-09-27T05:29:43.862Z,15.20
2018-09-27T05:32:11.370Z,15.20
2018-09-27T05:34:38.896Z,15.30
2018-09-27T05:37:06.404Z,15.30
2018-09-27T05:39:33.943Z,15.40
2018-09-27T05:42:01.522Z,15.40
2018-09-27T05:44:29.019Z,15.40
2018-09-27T05:46:56.538Z,15.40
2018-09-27T05:49:24.079Z,15.40
2018-09-27T05:51:51.594Z,15.40
2018-09-27T05:54:19.122Z,15.40
2018-09-27T05:56:46.645Z,15.40
2018-09-27T05:59:14.206Z,15.40
2018-09-27T06:01:41.741Z,15.40
2018-09-27T06:04:09.269Z,15.50
2018-09-27T06:06:36.798Z,15.50
2018-09-27T06:09:07.883Z,15.50
2018-09-27T06:11:35.423Z,15.60
2018-09-27T06:14:03.185Z,15.60
2018-09-27T06:16:30.698Z,15.70
2018-09-27T06:18:58.243Z,15.80
2018-09-27T06:21:25.800Z,15.80
2018-09-27T06:23:53.523Z,15.90
2018-09-27T06:26:21.067Z,15.90
2018-09-27T06:28:48.572Z,16.00
2018-09-27T06:31:16.116Z,16.00
2018-09-27T06:33:43.741Z,16.10
2018-09-27T06:36:11.186Z,16.20
2018-09-27T06:38:38.741Z,16.20
2018-09-27T06:41:06.265Z,16.30
2018-09-27T06:43:33.760Z,16.40
2018-09-27T06:46:01.289Z,16.50
2018-09-27T06:48:28.912Z,16.50
2018-09-27T06:50:56.372Z,16.60
2018-09-27T06:53:23.882Z,16.60
2018-09-27T06:55:51.512Z,16.70
2018-09-27T06:58:18.927Z,16.80
2018-09-27T07:00:46.470Z,16.90
2018-09-27T07:03:13.988Z,16.90
2018-09-27T07:05:41.494Z,17.10
2018-09-27T07:08:09.011Z,17.20
2018-09-27T07:10:36.539Z,17.30
2018-09-27T07:13:04.074Z,17.40
2018-09-27T07:15:31.608Z,17.50
2018-09-27T07:17:59.125Z,17.50
2018-09-27T07:20:26.671Z,17.60
2018-09-27T07:22:54.126Z,17.60
2018-09-27T07:25:21.645Z,17.60
2018-09-27T07:27:49.162Z,17.60
2018-09-27T07:30:16.670Z,17.80
2018-09-27T07:32:44.259Z,17.90
2018-09-27T07:35:11.722Z,17.90
2018-09-27T07:37:39.232Z,17.90
2018-09-27T07:40:06.761Z,17.90
2018-09-27T07:42:34.286Z,18.00
2018-09-27T07:45:01.831Z,18.10
2018-09-27T07:47:29.349Z,18.40
2018-09-27T07:49:56.856Z,18.70
2018-09-27T07:52:24.377Z,19.00
2018-09-27T07:54:52.193Z,19.10
2018-09-27T07:57:19.790Z,19.30
2018-09-27T07:59:47.295Z,19.60
2018-09-27T08:02:14.838Z,19.80
2018-09-27T08:04:42.338Z,20.00
2018-09-27T08:07:09.841Z,20.20
2018-09-27T08:09:37.350Z,20.40
2018-09-27T08:12:04.862Z,20.50
2018-09-27T08:14:32.402Z,20.70
2018-09-27T08:16:59.979Z,20.80
2018-09-27T08:19:27.422Z,20.90
2018-09-27T08:21:54.947Z,20.90
2018-09-27T08:24:22.445Z,20.90
2018-09-27T08:26:49.960Z,20.90
2018-09-27T08:29:17.458Z,21.00
2018-09-27T08:31:44.973Z,21.10
2018-09-27T08:34:12.481Z,21.30
2018-09-27T08:36:39.987Z,21.50
2018-09-27T08:42:39.621Z,21.60
2018-09-27T08:45:07.383Z,21.70
2018-09-27T08:47:34.697Z,21.70
2018-09-27T08:50:02.217Z,21.70
2018-09-27T08:52:29.738Z,22.00
2018-09-27T08:54:57.249Z,22.30
2018-09-27T08:57:24.805Z,22.50
2018-09-27T08:59:52.351Z,22.70
2018-09-27T09:02:19.873Z,22.80
2018-09-27T09:04:47.381Z,22.70
2018-09-27T09:07:14.904Z,22.70
2018-09-27T09:09:42.459Z,22.90
2018-09-27T09:12:09.985Z,23.20
2018-09-27T09:14:37.458Z,23.10
2018-09-27T09:17:05.027Z,23.00
2018-09-27T09:19:32.565Z,22.80
2018-09-27T09:22:10.461Z,22.80
2018-09-27T09:24:38.193Z,22.80
2018-09-27T09:27:05.967Z,22.80
2018-09-27T09:29:33.576Z,22.90
2018-09-27T09:32:01.009Z,23.10
2018-09-27T09:34:28.529Z,23.30
2018-09-27T09:36:56.041Z,23.40
2018-09-27T09:39:53.742Z,23.50
2018-09-27T09:42:21.303Z,23.50
2018-09-27T09:44:48.820Z,23.50
2018-09-27T09:47:16.385Z,23.30
2018-09-27T09:49:43.902Z,23.40
2018-09-27T09:52:11.434Z,23.40
2018-09-27T09:54:38.974Z,23.40
2018-09-27T09:57:06.687Z,23.50
2018-09-27T09:59:34.218Z,23.70
2018-09-27T10:02:01.750Z,24.00
2018-09-27T10:04:29.273Z,24.40
2018-09-27T10:06:56.791Z,24.70
2018-09-27T10:09:24.310Z,25.00
2018-09-27T10:11:51.841Z,25.40
2018-09-27T10:14:19.376Z,25.40
2018-09-27T10:16:46.917Z,25.40
2018-09-27T10:19:14.444Z,25.40
2018-09-27T10:21:41.998Z,25.60
2018-09-27T10:24:09.505Z,25.60
2018-09-27T10:26:37.020Z,25.50
2018-09-27T10:29:04.535Z,25.30
2018-09-27T10:31:32.057Z,25.30
2018-09-27T10:33:59.570Z,25.20
2018-09-27T10:36:27.115Z,25.10
2018-09-27T10:38:54.645Z,25.00
2018-09-27T10:41:22.194Z,25.20
2018-09-27T10:43:49.726Z,25.50
2018-09-27T10:46:17.254Z,26.00
2018-09-27T10:48:44.791Z,26.60
2018-09-27T10:51:12.344Z,27.30
2018-09-27T10:53:39.907Z,28.00
2018-09-27T10:56:12.369Z,28.20
2018-09-27T10:58:39.898Z,28.50
2018-09-27T11:01:07.436Z,28.80
2018-09-27T11:03:34.994Z,29.00
2018-09-27T11:06:02.537Z,28.80
2018-09-27T11:08:30.071Z,28.60
2018-09-27T11:10:57.668Z,28.10
2018-09-27T11:13:25.195Z,27.50
2018-09-27T11:15:52.678Z,26.90
2018-09-27T11:18:20.217Z,26.40
2018-09-27T11:20:47.731Z,26.10
2018-09-27T11:23:15.237Z,25.80
2018-09-27T11:25:42.851Z,25.60
2018-09-27T11:28:10.370Z,25.60
2018-09-27T11:30:37.918Z,25.90
2018-09-27T11:33:05.595Z,26.00
2018-09-27T11:35:33.093Z,25.90
2018-09-27T11:38:00.617Z,25.90
2018-09-27T11:40:28.187Z,26.00
2018-09-27T11:42:55.756Z,26.30
2018-09-27T11:45:23.270Z,26.60
2018-09-27T11:47:50.811Z,26.70
2018-09-27T11:50:18.411Z,26.70
2018-09-27T11:52:45.902Z,26.70
2018-09-27T11:55:13.498Z,26.90
2018-09-27T11:57:41.014Z,27.10
2018-09-27T12:00:08.889Z,27.30
2018-09-27T12:02:36.765Z,27.40
2018-09-27T12:05:04.342Z,27.90
2018-09-27T12:07:31.897Z,28.10
2018-09-27T12:09:59.546Z,28.30
2018-09-27T12:12:27.073Z,28.30
2018-09-27T12:14:55.068Z,28.20
2018-09-27T12:17:22.646Z,28.00
2018-09-27T12:19:50.183Z,27.80
2018-09-27T12:22:17.861Z,27.70
2018-09-27T12:24:45.417Z,27.70
2018-09-27T12:27:12.971Z,27.60
2018-09-27T12:29:40.518Z,27.60
2018-09-27T12:32:08.306Z,27.60
2018-09-27T12:34:35.825Z,27.70
2018-09-27T12:37:03.357Z,27.90
2018-09-27T12:39:30.944Z,27.90
2018-09-27T12:41:58.638Z,27.90
2018-09-27T12:44:25.969Z,27.90
2018-09-27T12:46:53.528Z,27.70
2018-09-27T12:49:20.997Z,27.50
2018-09-27T12:51:48.649Z,27.30
2018-09-27T12:54:16.051Z,27.10
2018-09-27T12:56:43.564Z,27.00
2018-09-27T12:59:11.074Z,26.90
2018-09-27T13:01:38.691Z,27.00
2018-09-27T13:04:06.239Z,27.10
2018-09-27T13:06:33.735Z,27.10
2018-09-27T13:09:01.351Z,27.10
2018-09-27T13:11:28.771Z,27.10
2018-09-27T13:13:56.286Z,27.20
2018-09-27T13:16:23.830Z,27.50
2018-09-27T13:18:51.380Z,27.70
2018-09-27T13:21:18.907Z,27.80
2018-09-27T13:23:46.425Z,27.90
2018-09-27T13:26:13.937Z,28.00
2018-09-27T13:28:41.491Z,28.10
2018-09-27T13:31:08.990Z,28.30
2018-09-27T13:33:36.507Z,28.40
2018-09-27T13:36:04.071Z,28.70
2018-09-27T13:38:31.592Z,28.80
2018-09-27T13:40:59.159Z,29.00
2018-09-27T13:43:26.688Z,29.10
2018-09-27T13:45:54.209Z,29.20
2018-09-27T13:48:21.741Z,29.20
2018-09-27T13:50:49.262Z,29.30
2018-09-27T13:53:16.809Z,29.40
2018-09-27T13:55:44.325Z,29.50
2018-09-27T13:58:11.864Z,29.60
2018-09-27T14:00:39.402Z,29.60
2018-09-27T14:03:07.016Z,29.60
2018-09-27T14:05:34.597Z,29.60
2018-09-27T14:08:02.068Z,29.60
2018-09-27T14:10:29.593Z,29.60
2018-09-27T14:12:57.121Z,29.50
2018-09-27T14:15:24.670Z,29.40
2018-09-27T14:17:52.193Z,29.40
2018-09-27T14:20:19.737Z,29.30
2018-09-27T14:22:47.267Z,29.40
2018-09-27T14:25:14.814Z,29.50
2018-09-27T14:27:42.347Z,29.40
2018-09-27T14:30:09.902Z,29.40
2018-09-27T14:32:37.431Z,29.30
2018-09-27T14:35:04.986Z,29.20
2018-09-27T14:37:32.510Z,29.10
2018-09-27T14:40:00.050Z,29.00
2018-09-27T14:42:27.582Z,28.80
2018-09-27T14:44:55.105Z,28.60
2018-09-27T14:47:22.609Z,28.30
2018-09-27T14:49:50.135Z,28.00
2018-09-27T14:52:17.656Z,27.60
2018-09-27T14:54:45.214Z,27.30
2018-09-27T14:57:12.702Z,26.90
2018-09-27T14:59:40.284Z,26.60
2018-09-27T15:02:07.844Z,26.40
2018-09-27T15:04:35.378Z,26.10
2018-09-27T15:07:02.863Z,26.00
2018-09-27T15:09:30.431Z,25.80
2018-09-27T15:11:57.919Z,25.60
2018-09-27T15:14:25.491Z,25.40
2018-09-27T15:16:52.973Z,25.30
2018-09-27T15:19:20.494Z,25.10
2018-09-27T15:21:47.994Z,25.00
2018-09-27T15:24:15.509Z,24.90
2018-09-27T15:26:43.023Z,24.80
2018-09-27T15:29:28.673Z,24.70
2018-09-27T15:31:56.181Z,24.60
2018-09-27T15:34:23.693Z,24.50
2018-09-27T15:36:51.181Z,24.30
2018-09-27T15:39:18.687Z,24.20
2018-09-27T15:41:57.247Z,24.20
2018-09-27T15:44:24.791Z,24.10
2018-09-27T15:46:52.306Z,24.00
2018-09-27T15:49:19.855Z,23.90
2018-09-27T15:51:47.401Z,23.80
2018-09-27T15:54:14.947Z,23.70
2018-09-27T15:56:42.457Z,23.70
2018-09-27T15:59:09.985Z,23.50
2018-09-27T16:01:37.513Z,23.40
2018-09-27T16:04:05.159Z,23.30
2018-09-27T16:06:32.661Z,23.10
2018-09-27T16:09:00.183Z,23.00
2018-09-27T16:11:27.723Z,22.90
2018-09-27T16:13:55.259Z,22.70
2018-09-27T16:16:22.822Z,22.60
2018-09-27T16:18:50.350Z,22.50
2018-09-27T16:21:17.885Z,22.30
2018-09-27T16:23:45.460Z,22.10
2018-09-27T16:26:12.966Z,21.90
2018-09-27T16:28:40.478Z,21.70
2018-09-27T16:31:08.189Z,21.50
2018-09-27T16:33:36.120Z,21.40
2018-09-27T16:36:03.559Z,21.20
2018-09-27T16:38:32.458Z,21.00
2018-09-27T16:41:00.006Z,20.80
2018-09-27T16:43:27.535Z,20.60
2018-09-27T16:45:55.058Z,20.40
2018-09-27T16:48:22.583Z,20.20
2018-09-27T16:50:50.119Z,20.00
2018-09-27T16:53:17.672Z,19.80
2018-09-27T16:55:45.275Z,19.60
2018-09-27T16:58:12.779Z,19.40
2018-09-27T17:00:40.319Z,19.30
2018-09-27T17:03:07.848Z,19.10
2018-09-27T17:05:35.415Z,19.00
2018-09-27T17:08:02.918Z,18.80
2018-09-27T17:10:30.446Z,18.70
2018-09-27T17:12:57.962Z,18.50
2018-09-27T17:15:25.488Z,18.40
2018-09-27T17:17:53.303Z,18.30
2018-09-27T17:20:20.853Z,18.20
2018-09-27T17:22:48.380Z,18.10
2018-09-27T17:25:15.919Z,18.00
2018-09-27T17:27:43.576Z,17.90
2018-09-27T17:30:11.090Z,17.80
2018-09-27T17:32:38.608Z,17.80
2018-09-27T17:35:06.154Z,17.80
2018-09-27T17:37:33.687Z,17.70
2018-09-27T17:40:01.207Z,17.60
2018-09-27T17:42:28.717Z,17.70
2018-09-27T17:44:56.362Z,17.60
2018-09-27T17:47:24.014Z,17.60
2018-09-27T17:49:51.579Z,17.60
2018-09-27T17:52:19.089Z,17.50
2018-09-27T17:54:46.789Z,17.50
2018-09-27T17:57:18.929Z,17.50
2018-09-27T17:59:46.556Z,17.50
2018-09-27T18:02:14.138Z,17.50
2018-09-27T18:04:41.714Z,17.50
2018-09-27T18:07:09.158Z,17.40
2018-09-27T18:09:36.644Z,17.40
2018-09-27T18:12:04.185Z,17.40
2018-09-27T18:14:31.701Z,17.30
2018-09-27T18:16:59.218Z,17.30
2018-09-27T18:19:26.751Z,17.30
2018-09-27T18:21:54.281Z,17.30
2018-09-27T18:24:21.778Z,17.20
2018-09-27T18:26:49.299Z,17.20
2018-09-27T18:29:16.813Z,17.20
2018-09-27T18:35:01.411Z,17.10
2018-09-27T18:37:29.263Z,17.00
2018-09-27T18:39:56.705Z,17.00
2018-09-27T18:42:24.230Z,17.00
2018-09-27T18:44:51.734Z,16.90
2018-09-27T18:47:19.247Z,16.90
2018-09-27T18:49:46.882Z,16.90
2018-09-27T18:52:14.413Z,16.80
2018-09-27T18:54:41.922Z,16.80
2018-09-27T18:57:09.450Z,16.70
2018-09-27T18:59:36.964Z,16.70
2018-09-27T19:02:04.588Z,16.60
2018-09-27T19:04:32.100Z,16.60
2018-09-27T19:06:59.622Z,16.60
2018-09-27T19:09:27.105Z,16.50
2018-09-27T19:11:54.614Z,16.50
2018-09-27T19:14:22.109Z,16.40
2018-09-27T19:16:49.644Z,16.30
2018-09-27T19:22:24.090Z,16.10
2018-09-27T19:34:02.041Z,15.80
2018-09-27T19:36:29.557Z,15.70
2018-09-27T19:38:57.061Z,15.60
2018-09-27T19:41:24.585Z,15.70
2018-09-27T19:43:52.086Z,15.70
2018-09-27T19:46:19.593Z,15.70
2018-09-27T19:48:47.094Z,15.70
2018-09-27T19:54:14.742Z,15.60
2018-09-27T19:56:42.261Z,15.60
2018-09-27T19:59:09.787Z,15.60
2018-09-27T20:01:37.289Z,15.70
2018-09-27T20:04:04.900Z,15.70
2018-09-27T20:06:32.366Z,15.70
2018-09-27T20:08:59.864Z,15.80
2018-09-27T20:11:27.497Z,15.80
2018-09-27T20:13:54.993Z,15.80
2018-09-27T20:16:22.636Z,15.70
2018-09-27T20:18:50.013Z,15.60
2018-09-27T20:21:17.527Z,15.60
2018-09-27T20:23:45.038Z,15.60
2018-09-27T20:26:12.540Z,15.50
2018-09-27T20:28:40.055Z,15.50
2018-09-27T20:31:07.726Z,15.50
2018-09-27T20:33:35.246Z,15.50
2018-09-27T20:36:02.766Z,15.50
2018-09-27T20:38:30.265Z,15.50
2018-09-27T20:40:57.777Z,15.50
2018-09-27T20:43:25.305Z,15.50
2018-09-27T20:45:52.813Z,15.50
2018-09-27T20:48:20.361Z,15.50
2018-09-27T20:50:47.881Z,15.50
2018-09-27T20:53:15.401Z,15.50
2018-09-27T20:55:42.936Z,15.50
2018-09-27T20:58:10.455Z,15.50
2018-09-27T21:00:37.993Z,15.50
2018-09-27T21:03:05.639Z,15.40
2018-09-27T21:05:33.129Z,15.40
2018-09-27T21:08:00.962Z,15.30
2018-09-27T21:10:28.477Z,15.30
2018-09-27T21:12:56.001Z,15.20
2018-09-27T21:15:23.526Z,15.10
2018-09-27T21:17:51.054Z,15.00
2018-09-27T21:20:18.566Z,15.00
2018-09-27T21:22:46.099Z,14.90
2018-09-27T21:25:13.628Z,14.80
2018-09-27T21:27:41.175Z,14.70
2018-09-27T21:30:08.741Z,14.70
2018-09-27T21:32:36.262Z,14.70
2018-09-27T21:35:04.113Z,14.60
2018-09-27T21:37:31.650Z,14.70
2018-09-27T21:39:59.169Z,14.60
2018-09-27T21:42:26.706Z,14.60
2018-09-27T21:44:54.214Z,14.60
2018-09-27T21:47:21.743Z,14.60
2018-09-27T21:49:49.262Z,14.50
2018-09-27T21:52:16.765Z,14.50
2018-09-27T21:54:44.248Z,14.50
2018-09-27T21:57:24.238Z,14.50
2018-09-27T21:59:51.749Z,14.50
2018-09-27T22:02:22.979Z,14.50
2018-09-27T22:08:08.646Z,14.60
2018-09-27T22:10:36.163Z,14.80
2018-09-27T22:13:03.685Z,14.80
2018-09-27T22:15:31.201Z,14.90
2018-09-27T22:17:58.709Z,14.90
2018-09-27T22:20:28.216Z,14.90
2018-09-27T22:23:02.111Z,14.90
2018-09-27T22:25:47.384Z,14.80
2018-09-27T22:28:33.055Z,14.70
2018-09-27T22:31:00.561Z,14.70
2018-09-27T22:33:28.075Z,14.60
2018-09-27T22:35:55.581Z,14.50
2018-09-27T22:38:23.078Z,14.50
2018-09-27T22:40:51.393Z,14.40
2018-09-27T22:43:18.931Z,14.40
2018-09-27T22:45:46.474Z,14.40
2018-09-27T22:48:14.007Z,14.30
2018-09-27T22:50:41.543Z,14.20
2018-09-27T22:53:09.097Z,14.20
2018-09-27T22:55:36.629Z,14.10
2018-09-27T22:58:04.163Z,14.10
2018-09-27T23:00:31.689Z,14.10
2018-09-27T23:02:59.239Z,14.10
2018-09-27T23:05:26.779Z,14.20
2018-09-27T23:07:54.499Z,14.20
2018-09-27T23:10:22.002Z,14.30
2018-09-27T23:12:49.683Z,14.20
2018-09-27T23:15:17.205Z,14.30
2018-09-27T23:17:44.743Z,14.30
2018-09-27T23:20:12.266Z,14.30
2018-09-27T23:22:39.778Z,14.30
2018-09-27T23:25:07.607Z,14.30
2018-09-27T23:27:35.281Z,14.20
2018-09-27T23:30:03.069Z,14.10
2018-09-27T23:32:30.599Z,14.10
2018-09-27T23:34:58.117Z,14.30
2018-09-27T23:37:25.635Z,14.40
2018-09-27T23:39:53.167Z,14.30
2018-09-27T23:42:20.703Z,14.30
2018-09-27T23:44:48.230Z,14.20
2018-09-27T23:47:15.762Z,14.10
2018-09-27T23:49:43.290Z,13.90
2018-09-27T23:52:10.799Z,13.80
2018-09-27T23:54:38.341Z,13.70
2018-09-27T23:57:05.869Z,13.50
2018-09-27T23:59:33.396Z,13.40
